logo
Search for airport 
image banner adimage banner adimage banner ad
image banner ad

LKCM - Medlanky

Located in Brno, Czech Republic

ICAO - LKCM, IATA -

Data provided by Airmate  

General information

Coordinates: N49°14'13" E16°33'19"
Elevation is 925 feet MSL.
 
View others Airports in South Moravian Region

Operational data

Special qualification required
Current time UTC:
Current local time:
Weather at : LKTB - Brno/Turany ( 14 km )
METAR: LKTB 171900Z 35006KT 9999 FEW041 07/00 Q1007 NOSIG
TAF: TAF LKTB 171100Z 1712/1812 31008KT 9999 BKN040 TEMPO 1712/1719 36012KT 7000 -SHRA BKN025TCU TEMPO 1809/1812 7000 -SHRA BKN020TCU
View NOTAMs / SUP AIP / TFR affecting this airport [VIEW]
Communications frequencies: [VIEW]

Runways:

RWY identifierQFULength (ft)Width (ft)SurfaceLDA (ft)
162920243GRASS
342920243GRASS

Airport contact information

Address: Brno Czech Republic

Other aviation service providers

Flight schools

Mado-Air, S.R.O.

Mado-Air, S.R.O.
info@madoair.cz+420608805517
+420608805517

Satellite view of LKCM